Tropical Cyclones
[Index]
Main Index Home Page Stock Weather Photos Extreme Storms Discussion Storm News and Storm Chasing Reports Tropical Cyclones / Hurricanes / Typhoons Weather Data and Links Wild Fires / Bushfires Weather Observation Techniques Weather Picture Catalogue Tornado Pictures and Reports Stock Video Footage and DVDs for sale
Season 1995-1996 Tropical Cyclone BARRY Track Map
Season 1995-1996 Summaries: [BoM-AU] [JTWC-AU] [JTWC-SIO] [JTWC-SPAC] [JTWC-SH]
<<- Previous TC | BoM 1995-1996 Season | Next TC ->>

click for intensity scale information  Lat/long Grid: Show Hide

 Date Labels: Show Hide

Bureau of Meteorology Tropical Cyclone Data

Name: BARRY
Number: 782 / 199596_05

02 Jan 1996 06:00 UTC to 09 Jan 1996 06:00 UTC

    date/time    lat    long    hPa   cat  kts
1996-01-02 06   14.7   133.0   1004         15          
1996-01-02 12   15.0   134.4   1004         20          
1996-01-02 18   15.3   135.7   1004         20          
1996-01-03 00   15.6   137.4   1004         25          
1996-01-03 06   15.7   138.2   1000         25          
1996-01-03 12   15.3   138.5    998         30          
1996-01-03 18   15.0   138.7    995    1    35          
1996-01-04 00   14.8   138.8    995    1    40          
1996-01-04 06   14.8   139.2    990    1    50          
1996-01-04 12   14.9   139.6    990    1    55          
1996-01-04 18   15.0   140.0    985    2    65          
1996-01-05 00   15.6   140.5    970    3    80          
1996-01-05 06   16.0   140.9    950    4    100          
1996-01-05 12   16.6   141.4    960    3    95          
1996-01-05 18   16.9   141.4    975    2    75          
1996-01-06 00   17.1   141.6    980    2    60          
1996-01-06 06   17.3   141.9    980    2    50          
1996-01-06 12   17.6   142.1    985    2    45          
1996-01-06 18   17.9   142.3    990    1    40          
1996-01-07 00   18.1   142.5    995    1    30          
1996-01-07 06   18.8   142.5    995    1    30          
1996-01-07 12   19.3   143.2    996         25          
1996-01-07 18   19.8   143.6    998         25          
1996-01-08 00   20.2   144.1    998         25          
1996-01-08 06   21.0   144.5    996         25          
1996-01-08 12   21.9   146.0    996         25          
1996-01-08 18   22.9   147.2    996         25          
1996-01-09 00   23.8   148.7    995    1    25          
1996-01-09 06   24.2   149.2    995    1    25          
Winds are 10-min average.

Tropical cyclone tracks developed by Michael Bath using data from the Bureau of Meteorology and Google Maps.


[Australian Severe Weather index] [Copyright Notice] [Email Contacts] [Search This Site] [Privacy Policy]
Document: tropical_cyclone_barry.htm Updated: 4 April 2018